sensor_id;sensor_type;location;lat;lon;timestamp;temperature;humidity
11848;DHT22;5983;49.966;8.052;2023-07-20T00:00:57;19.80;99.90
11848;DHT22;5983;49.966;8.052;2023-07-20T00:03:24;19.80;99.90
11848;DHT22;5983;49.966;8.052;2023-07-20T00:05:51;19.70;99.90
11848;DHT22;5983;49.966;8.052;2023-07-20T00:08:18;19.60;99.90
11848;DHT22;5983;49.966;8.052;2023-07-20T00:10:44;19.50;99.90
11848;DHT22;5983;49.966;8.052;2023-07-20T00:13:11;19.50;99.90
11848;DHT22;5983;49.966;8.052;2023-07-20T00:15:40;19.40;99.90
11848;DHT22;5983;49.966;8.052;2023-07-20T00:18:07;19.40;99.90
11848;DHT22;5983;49.966;8.052;2023-07-20T00:20:34;19.30;99.90
11848;DHT22;5983;49.966;8.052;2023-07-20T00:23:00;19.20;99.90
11848;DHT22;5983;49.966;8.052;2023-07-20T00:25:27;19.20;99.90
11848;DHT22;5983;49.966;8.052;2023-07-20T00:27:54;19.20;99.90
11848;DHT22;5983;49.966;8.052;2023-07-20T00:30:21;19.10;99.90
11848;DHT22;5983;49.966;8.052;2023-07-20T00:32:49;19.10;99.90
11848;DHT22;5983;49.966;8.052;2023-07-20T00:35:16;19.00;99.90
11848;DHT22;5983;49.966;8.052;2023-07-20T00:37:43;19.00;99.90
11848;DHT22;5983;49.966;8.052;2023-07-20T00:40:10;19.00;99.90
11848;DHT22;5983;49.966;8.052;2023-07-20T00:42:37;19.00;99.90
11848;DHT22;5983;49.966;8.052;2023-07-20T00:45:05;18.90;99.90
11848;DHT22;5983;49.966;8.052;2023-07-20T00:47:32;18.80;99.90
11848;DHT22;5983;49.966;8.052;2023-07-20T00:50:00;18.80;99.90
11848;DHT22;5983;49.966;8.052;2023-07-20T00:52:28;18.80;99.90
11848;DHT22;5983;49.966;8.052;2023-07-20T00:54:56;18.80;99.90
11848;DHT22;5983;49.966;8.052;2023-07-20T00:57:23;18.70;99.90
11848;DHT22;5983;49.966;8.052;2023-07-20T00:59:51;18.70;99.90
11848;DHT22;5983;49.966;8.052;2023-07-20T01:02:18;18.70;99.90
11848;DHT22;5983;49.966;8.052;2023-07-20T01:04:45;18.60;99.90
11848;DHT22;5983;49.966;8.052;2023-07-20T01:07:14;18.60;99.90
11848;DHT22;5983;49.966;8.052;2023-07-20T01:09:51;18.50;99.90
11848;DHT22;5983;49.966;8.052;2023-07-20T01:12:26;18.40;99.90
11848;DHT22;5983;49.966;8.052;2023-07-20T01:14:56;18.30;99.90
11848;DHT22;5983;49.966;8.052;2023-07-20T01:17:23;18.30;99.90
11848;DHT22;5983;49.966;8.052;2023-07-20T01:19:50;18.30;99.90
11848;DHT22;5983;49.966;8.052;2023-07-20T01:22:24;18.30;99.90
11848;DHT22;5983;49.966;8.052;2023-07-20T01:25:19;18.30;99.90
11848;DHT22;5983;49.966;8.052;2023-07-20T01:27:57;18.30;99.90
11848;DHT22;5983;49.966;8.052;2023-07-20T01:30:46;18.20;99.90
11848;DHT22;5983;49.966;8.052;2023-07-20T01:33:21;18.20;99.90
11848;DHT22;5983;49.966;8.052;2023-07-20T01:35:51;18.20;99.90
11848;DHT22;5983;49.966;8.052;2023-07-20T01:38:21;18.20;99.90
11848;DHT22;5983;49.966;8.052;2023-07-20T01:40:49;18.20;99.90
11848;DHT22;5983;49.966;8.052;2023-07-20T01:43:17;18.10;99.90
11848;DHT22;5983;49.966;8.052;2023-07-20T01:45:44;18.10;99.90
11848;DHT22;5983;49.966;8.052;2023-07-20T01:48:10;18.10;99.90
11848;DHT22;5983;49.966;8.052;2023-07-20T01:50:39;18.10;99.90
11848;DHT22;5983;49.966;8.052;2023-07-20T01:53:06;18.00;99.90
11848;DHT22;5983;49.966;8.052;2023-07-20T01:55:32;18.00;99.90
11848;DHT22;5983;49.966;8.052;2023-07-20T01:57:59;18.00;99.90
11848;DHT22;5983;49.966;8.052;2023-07-20T02:00:27;18.00;99.90
11848;DHT22;5983;49.966;8.052;2023-07-20T02:02:53;18.00;99.90
11848;DHT22;5983;49.966;8.052;2023-07-20T02:05:20;17.90;99.90
11848;DHT22;5983;49.966;8.052;2023-07-20T02:07:48;17.90;99.90
11848;DHT22;5983;49.966;8.052;2023-07-20T02:10:15;17.90;99.90
11848;DHT22;5983;49.966;8.052;2023-07-20T02:12:42;17.90;99.90
11848;DHT22;5983;49.966;8.052;2023-07-20T02:15:09;17.90;99.90
11848;DHT22;5983;49.966;8.052;2023-07-20T02:17:38;17.90;99.90
11848;DHT22;5983;49.966;8.052;2023-07-20T02:20:06;17.80;99.90
11848;DHT22;5983;49.966;8.052;2023-07-20T02:22:35;17.80;99.90
11848;DHT22;5983;49.966;8.052;2023-07-20T02:25:05;17.70;99.90
11848;DHT22;5983;49.966;8.052;2023-07-20T02:27:32;17.70;99.90
11848;DHT22;5983;49.966;8.052;2023-07-20T02:29:59;17.60;99.90
11848;DHT22;5983;49.966;8.052;2023-07-20T02:32:27;17.60;99.90
11848;DHT22;5983;49.966;8.052;2023-07-20T02:34:54;17.60;99.90
11848;DHT22;5983;49.966;8.052;2023-07-20T02:37:20;17.50;99.90
11848;DHT22;5983;49.966;8.052;2023-07-20T02:39:47;17.50;99.90
11848;DHT22;5983;49.966;8.052;2023-07-20T02:42:15;17.50;99.90
11848;DHT22;5983;49.966;8.052;2023-07-20T02:44:43;17.40;99.90
11848;DHT22;5983;49.966;8.052;2023-07-20T02:47:09;17.40;99.90
11848;DHT22;5983;49.966;8.052;2023-07-20T02:49:36;17.30;99.90
11848;DHT22;5983;49.966;8.052;2023-07-20T02:52:03;17.30;99.90
11848;DHT22;5983;49.966;8.052;2023-07-20T02:54:31;17.30;99.90
11848;DHT22;5983;49.966;8.052;2023-07-20T02:56:57;17.20;99.90
11848;DHT22;5983;49.966;8.052;2023-07-20T02:59:26;17.10;99.90
11848;DHT22;5983;49.966;8.052;2023-07-20T03:01:52;17.10;99.90
11848;DHT22;5983;49.966;8.052;2023-07-20T03:04:19;17.00;99.90
11848;DHT22;5983;49.966;8.052;2023-07-20T03:06:46;17.00;99.90
11848;DHT22;5983;49.966;8.052;2023-07-20T03:09:13;16.90;99.90
11848;DHT22;5983;49.966;8.052;2023-07-20T03:11:40;16.90;99.90
11848;DHT22;5983;49.966;8.052;2023-07-20T03:14:07;16.80;99.90
11848;DHT22;5983;49.966;8.052;2023-07-20T03:16:37;16.70;99.90
11848;DHT22;5983;49.966;8.052;2023-07-20T03:19:04;16.70;99.90
11848;DHT22;5983;49.966;8.052;2023-07-20T03:21:31;16.60;99.90
11848;DHT22;5983;49.966;8.052;2023-07-20T03:23:57;16.50;99.90
11848;DHT22;5983;49.966;8.052;2023-07-20T03:26:24;16.50;99.90
11848;DHT22;5983;49.966;8.052;2023-07-20T03:28:51;16.40;99.90
11848;DHT22;5983;49.966;8.052;2023-07-20T03:31:18;16.40;99.90
11848;DHT22;5983;49.966;8.052;2023-07-20T03:33:46;16.30;99.90
11848;DHT22;5983;49.966;8.052;2023-07-20T03:36:13;16.30;99.90
11848;DHT22;5983;49.966;8.052;2023-07-20T03:38:39;16.30;99.90
11848;DHT22;5983;49.966;8.052;2023-07-20T03:41:06;16.30;99.90
11848;DHT22;5983;49.966;8.052;2023-07-20T03:43:34;16.30;99.90
11848;DHT22;5983;49.966;8.052;2023-07-20T03:46:01;16.30;99.90
11848;DHT22;5983;49.966;8.052;2023-07-20T03:48:31;16.30;99.90
11848;DHT22;5983;49.966;8.052;2023-07-20T03:51:00;16.30;99.90
11848;DHT22;5983;49.966;8.052;2023-07-20T03:53:27;16.40;99.90
11848;DHT22;5983;49.966;8.052;2023-07-20T03:55:54;16.40;99.90
11848;DHT22;5983;49.966;8.052;2023-07-20T03:58:21;16.50;99.90
11848;DHT22;5983;49.966;8.052;2023-07-20T04:00:48;16.50;99.90
11848;DHT22;5983;49.966;8.052;2023-07-20T04:03:17;16.50;99.90
11848;DHT22;5983;49.966;8.052;2023-07-20T04:05:44;16.50;99.90
11848;DHT22;5983;49.966;8.052;2023-07-20T04:08:13;16.60;99.90
11848;DHT22;5983;49.966;8.052;2023-07-20T04:10:42;16.60;99.90
11848;DHT22;5983;49.966;8.052;2023-07-20T04:13:10;16.60;99.90
11848;DHT22;5983;49.966;8.052;2023-07-20T04:15:37;16.60;99.90
11848;DHT22;5983;49.966;8.052;2023-07-20T04:18:03;16.70;99.90
11848;DHT22;5983;49.966;8.052;2023-07-20T04:20:30;16.60;99.90
11848;DHT22;5983;49.966;8.052;2023-07-20T04:22:57;16.60;99.90
11848;DHT22;5983;49.966;8.052;2023-07-20T04:25:25;16.60;99.90
11848;DHT22;5983;49.966;8.052;2023-07-20T04:27:52;16.50;99.90
11848;DHT22;5983;49.966;8.052;2023-07-20T04:30:19;16.50;99.90
11848;DHT22;5983;49.966;8.052;2023-07-20T04:32:48;16.50;99.90
11848;DHT22;5983;49.966;8.052;2023-07-20T04:35:26;16.50;99.90
11848;DHT22;5983;49.966;8.052;2023-07-20T04:38:13;16.50;99.90
11848;DHT22;5983;49.966;8.052;2023-07-20T04:40:41;16.50;99.90
11848;DHT22;5983;49.966;8.052;2023-07-20T04:43:08;16.60;99.90
11848;DHT22;5983;49.966;8.052;2023-07-20T04:45:35;16.60;99.90
11848;DHT22;5983;49.966;8.052;2023-07-20T04:48:02;16.70;99.90
11848;DHT22;5983;49.966;8.052;2023-07-20T04:50:29;16.80;99.90
11848;DHT22;5983;49.966;8.052;2023-07-20T04:52:56;16.90;99.90
11848;DHT22;5983;49.966;8.052;2023-07-20T04:55:24;17.00;99.90
11848;DHT22;5983;49.966;8.052;2023-07-20T04:57:51;17.00;99.90
11848;DHT22;5983;49.966;8.052;2023-07-20T05:00:18;17.20;99.90
11848;DHT22;5983;49.966;8.052;2023-07-20T05:02:46;17.20;99.90
11848;DHT22;5983;49.966;8.052;2023-07-20T05:05:14;17.30;99.90
11848;DHT22;5983;49.966;8.052;2023-07-20T05:07:41;17.30;99.90
11848;DHT22;5983;49.966;8.052;2023-07-20T05:10:08;17.40;99.90
11848;DHT22;5983;49.966;8.052;2023-07-20T05:12:37;17.50;99.90
11848;DHT22;5983;49.966;8.052;2023-07-20T05:15:04;17.50;99.90
11848;DHT22;5983;49.966;8.052;2023-07-20T05:17:31;17.60;99.90
11848;DHT22;5983;49.966;8.052;2023-07-20T05:19:58;17.70;99.90
11848;DHT22;5983;49.966;8.052;2023-07-20T05:22:25;17.80;99.90
11848;DHT22;5983;49.966;8.052;2023-07-20T05:24:52;17.80;99.90
11848;DHT22;5983;49.966;8.052;2023-07-20T05:27:21;17.90;99.90
11848;DHT22;5983;49.966;8.052;2023-07-20T05:29:49;18.00;99.90
11848;DHT22;5983;49.966;8.052;2023-07-20T05:32:17;18.00;99.90
11848;DHT22;5983;49.966;8.052;2023-07-20T05:34:43;18.10;99.90
11848;DHT22;5983;49.966;8.052;2023-07-20T05:37:10;18.10;99.90
11848;DHT22;5983;49.966;8.052;2023-07-20T05:39:37;18.20;99.90
11848;DHT22;5983;49.966;8.052;2023-07-20T05:42:04;18.30;99.90
11848;DHT22;5983;49.966;8.052;2023-07-20T05:44:31;18.30;99.90
11848;DHT22;5983;49.966;8.052;2023-07-20T05:47:00;18.40;99.90
11848;DHT22;5983;49.966;8.052;2023-07-20T05:49:29;18.50;99.90
11848;DHT22;5983;49.966;8.052;2023-07-20T05:54:51;18.60;99.90
11848;DHT22;5983;49.966;8.052;2023-07-20T05:57:17;18.70;99.90
11848;DHT22;5983;49.966;8.052;2023-07-20T05:59:44;18.70;99.90
11848;DHT22;5983;49.966;8.052;2023-07-20T06:02:12;18.80;99.90
11848;DHT22;5983;49.966;8.052;2023-07-20T06:04:39;18.90;99.90
11848;DHT22;5983;49.966;8.052;2023-07-20T06:07:06;19.00;99.90
11848;DHT22;5983;49.966;8.052;2023-07-20T06:09:33;19.10;99.90
11848;DHT22;5983;49.966;8.052;2023-07-20T06:12:01;19.20;99.90
11848;DHT22;5983;49.966;8.052;2023-07-20T06:14:27;19.40;99.90
11848;DHT22;5983;49.966;8.052;2023-07-20T06:16:54;19.40;99.90
11848;DHT22;5983;49.966;8.052;2023-07-20T06:19:22;19.50;99.90
11848;DHT22;5983;49.966;8.052;2023-07-20T06:21:49;19.60;99.90
11848;DHT22;5983;49.966;8.052;2023-07-20T06:24:16;19.80;99.90
11848;DHT22;5983;49.966;8.052;2023-07-20T06:26:43;19.90;99.90
11848;DHT22;5983;49.966;8.052;2023-07-20T06:29:10;20.00;99.90
11848;DHT22;5983;49.966;8.052;2023-07-20T06:31:36;20.10;99.90
11848;DHT22;5983;49.966;8.052;2023-07-20T06:34:03;20.20;99.90
11848;DHT22;5983;49.966;8.052;2023-07-20T06:36:31;20.30;99.90
11848;DHT22;5983;49.966;8.052;2023-07-20T06:38:58;20.40;99.90
11848;DHT22;5983;49.966;8.052;2023-07-20T06:41:25;20.50;99.90
11848;DHT22;5983;49.966;8.052;2023-07-20T06:43:52;20.50;99.90
11848;DHT22;5983;49.966;8.052;2023-07-20T06:46:23;20.50;99.90
11848;DHT22;5983;49.966;8.052;2023-07-20T06:48:50;20.60;99.90
11848;DHT22;5983;49.966;8.052;2023-07-20T06:51:17;20.70;99.90
11848;DHT22;5983;49.966;8.052;2023-07-20T06:53:45;20.80;99.90
11848;DHT22;5983;49.966;8.052;2023-07-20T06:56:12;21.00;99.90
11848;DHT22;5983;49.966;8.052;2023-07-20T06:58:39;21.10;99.90
11848;DHT22;5983;49.966;8.052;2023-07-20T07:01:06;21.30;99.90
11848;DHT22;5983;49.966;8.052;2023-07-20T07:03:33;21.40;99.90
11848;DHT22;5983;49.966;8.052;2023-07-20T07:06:02;21.60;99.90
11848;DHT22;5983;49.966;8.052;2023-07-20T07:08:28;21.70;99.90
11848;DHT22;5983;49.966;8.052;2023-07-20T07:10:57;21.60;99.90
11848;DHT22;5983;49.966;8.052;2023-07-20T07:13:23;21.70;99.90
11848;DHT22;5983;49.966;8.052;2023-07-20T07:15:50;21.80;99.90
11848;DHT22;5983;49.966;8.052;2023-07-20T07:18:17;21.90;99.90
11848;DHT22;5983;49.966;8.052;2023-07-20T07:20:51;22.00;99.90
11848;DHT22;5983;49.966;8.052;2023-07-20T07:23:18;22.20;99.90
11848;DHT22;5983;49.966;8.052;2023-07-20T07:25:45;22.30;99.90
11848;DHT22;5983;49.966;8.052;2023-07-20T07:28:13;22.30;99.90
11848;DHT22;5983;49.966;8.052;2023-07-20T07:30:40;22.20;99.90
11848;DHT22;5983;49.966;8.052;2023-07-20T07:33:07;22.30;99.90
11848;DHT22;5983;49.966;8.052;2023-07-20T07:35:35;22.30;99.90
11848;DHT22;5983;49.966;8.052;2023-07-20T07:38:02;22.40;99.90
11848;DHT22;5983;49.966;8.052;2023-07-20T07:40:28;22.40;99.90
11848;DHT22;5983;49.966;8.052;2023-07-20T07:42:55;22.50;99.90
11848;DHT22;5983;49.966;8.052;2023-07-20T07:45:23;22.60;99.90
11848;DHT22;5983;49.966;8.052;2023-07-20T07:47:50;22.70;99.90
11848;DHT22;5983;49.966;8.052;2023-07-20T07:50:17;22.80;99.90
11848;DHT22;5983;49.966;8.052;2023-07-20T07:52:44;22.80;99.90
11848;DHT22;5983;49.966;8.052;2023-07-20T07:55:10;22.90;99.90
11848;DHT22;5983;49.966;8.052;2023-07-20T07:57:37;23.10;99.90
11848;DHT22;5983;49.966;8.052;2023-07-20T08:00:04;23.20;99.90
11848;DHT22;5983;49.966;8.052;2023-07-20T08:02:37;23.20;99.90
11848;DHT22;5983;49.966;8.052;2023-07-20T08:05:04;23.20;99.90
11848;DHT22;5983;49.966;8.052;2023-07-20T08:07:31;23.20;99.90
11848;DHT22;5983;49.966;8.052;2023-07-20T08:10:04;23.10;99.90
11848;DHT22;5983;49.966;8.052;2023-07-20T08:13:00;23.10;99.90
11848;DHT22;5983;49.966;8.052;2023-07-20T08:15:26;23.10;99.90
11848;DHT22;5983;49.966;8.052;2023-07-20T08:17:54;23.20;99.90
11848;DHT22;5983;49.966;8.052;2023-07-20T08:20:21;23.30;99.90
11848;DHT22;5983;49.966;8.052;2023-07-20T08:22:51;23.40;99.90
11848;DHT22;5983;49.966;8.052;2023-07-20T08:25:19;23.50;99.90
11848;DHT22;5983;49.966;8.052;2023-07-20T08:27:46;23.60;99.90
11848;DHT22;5983;49.966;8.052;2023-07-20T08:30:13;23.70;99.90
11848;DHT22;5983;49.966;8.052;2023-07-20T08:32:39;23.80;99.90
11848;DHT22;5983;49.966;8.052;2023-07-20T08:35:08;23.80;99.90
11848;DHT22;5983;49.966;8.052;2023-07-20T08:37:35;23.70;99.90
11848;DHT22;5983;49.966;8.052;2023-07-20T08:40:02;23.60;99.90
11848;DHT22;5983;49.966;8.052;2023-07-20T08:42:33;23.50;99.90
11848;DHT22;5983;49.966;8.052;2023-07-20T08:45:01;23.50;99.90
11848;DHT22;5983;49.966;8.052;2023-07-20T08:47:33;23.60;99.90
11848;DHT22;5983;49.966;8.052;2023-07-20T08:50:02;23.80;99.90
11848;DHT22;5983;49.966;8.052;2023-07-20T08:52:33;23.90;99.90
11848;DHT22;5983;49.966;8.052;2023-07-20T08:55:00;24.00;99.90
11848;DHT22;5983;49.966;8.052;2023-07-20T08:57:28;24.00;99.90
11848;DHT22;5983;49.966;8.052;2023-07-20T08:59:58;24.20;99.90
11848;DHT22;5983;49.966;8.052;2023-07-20T09:02:25;24.20;99.90
11848;DHT22;5983;49.966;8.052;2023-07-20T09:04:53;24.30;99.90
11848;DHT22;5983;49.966;8.052;2023-07-20T09:07:20;24.50;99.90
11848;DHT22;5983;49.966;8.052;2023-07-20T09:09:48;24.50;99.90
11848;DHT22;5983;49.966;8.052;2023-07-20T09:12:15;24.40;99.90
11848;DHT22;5983;49.966;8.052;2023-07-20T09:14:42;24.30;99.90
11848;DHT22;5983;49.966;8.052;2023-07-20T09:17:12;24.20;99.90
11848;DHT22;5983;49.966;8.052;2023-07-20T09:19:42;24.10;99.90
11848;DHT22;5983;49.966;8.052;2023-07-20T09:22:12;24.10;99.90
11848;DHT22;5983;49.966;8.052;2023-07-20T09:24:39;24.00;99.90
11848;DHT22;5983;49.966;8.052;2023-07-20T09:27:08;23.80;99.90
11848;DHT22;5983;49.966;8.052;2023-07-20T09:29:42;23.60;99.90
11848;DHT22;5983;49.966;8.052;2023-07-20T09:32:14;23.50;99.90
11848;DHT22;5983;49.966;8.052;2023-07-20T09:34:45;23.50;99.90
11848;DHT22;5983;49.966;8.052;2023-07-20T09:37:12;23.40;99.90
11848;DHT22;5983;49.966;8.052;2023-07-20T09:39:42;23.50;99.90
11848;DHT22;5983;49.966;8.052;2023-07-20T09:42:11;23.50;99.90
11848;DHT22;5983;49.966;8.052;2023-07-20T09:44:39;23.60;99.90
11848;DHT22;5983;49.966;8.052;2023-07-20T09:47:06;23.50;99.90
11848;DHT22;5983;49.966;8.052;2023-07-20T09:49:32;23.50;99.90
11848;DHT22;5983;49.966;8.052;2023-07-20T09:52:05;23.50;99.90
11848;DHT22;5983;49.966;8.052;2023-07-20T09:54:32;23.50;99.90
11848;DHT22;5983;49.966;8.052;2023-07-20T09:57:00;23.50;99.90
11848;DHT22;5983;49.966;8.052;2023-07-20T09:59:30;23.80;99.90
11848;DHT22;5983;49.966;8.052;2023-07-20T10:01:57;23.90;99.90
11848;DHT22;5983;49.966;8.052;2023-07-20T10:04:26;24.00;99.90
11848;DHT22;5983;49.966;8.052;2023-07-20T10:06:55;24.10;99.90
11848;DHT22;5983;49.966;8.052;2023-07-20T10:09:22;24.10;99.90
11848;DHT22;5983;49.966;8.052;2023-07-20T10:11:50;24.10;99.90
11848;DHT22;5983;49.966;8.052;2023-07-20T10:14:20;24.20;99.90
11848;DHT22;5983;49.966;8.052;2023-07-20T10:16:50;24.10;99.90
11848;DHT22;5983;49.966;8.052;2023-07-20T10:19:21;24.10;99.90
11848;DHT22;5983;49.966;8.052;2023-07-20T10:21:51;24.20;99.90
11848;DHT22;5983;49.966;8.052;2023-07-20T10:24:26;24.30;99.90
11848;DHT22;5983;49.966;8.052;2023-07-20T10:26:55;24.50;99.90
11848;DHT22;5983;49.966;8.052;2023-07-20T10:29:21;24.60;99.90
11848;DHT22;5983;49.966;8.052;2023-07-20T10:31:51;24.80;99.90
11848;DHT22;5983;49.966;8.052;2023-07-20T10:34:18;25.00;99.90
11848;DHT22;5983;49.966;8.052;2023-07-20T10:36:45;25.20;99.90
11848;DHT22;5983;49.966;8.052;2023-07-20T10:39:23;25.50;99.90
11848;DHT22;5983;49.966;8.052;2023-07-20T10:41:59;25.80;99.90
11848;DHT22;5983;49.966;8.052;2023-07-20T10:44:27;26.10;99.90
11848;DHT22;5983;49.966;8.052;2023-07-20T10:46:59;26.20;99.70
11848;DHT22;5983;49.966;8.052;2023-07-20T10:49:27;26.30;99.40
11848;DHT22;5983;49.966;8.052;2023-07-20T10:51:57;26.60;99.70
11848;DHT22;5983;49.966;8.052;2023-07-20T10:57:22;27.10;99.20
11848;DHT22;5983;49.966;8.052;2023-07-20T10:59:50;27.40;98.60
11848;DHT22;5983;49.966;8.052;2023-07-20T11:02:19;27.40;98.40
11848;DHT22;5983;49.966;8.052;2023-07-20T11:04:46;27.30;98.30
11848;DHT22;5983;49.966;8.052;2023-07-20T11:07:17;27.10;96.50
11848;DHT22;5983;49.966;8.052;2023-07-20T11:09:44;27.00;95.90
11848;DHT22;5983;49.966;8.052;2023-07-20T11:12:11;26.90;95.70
11848;DHT22;5983;49.966;8.052;2023-07-20T11:14:40;26.90;96.50
11848;DHT22;5983;49.966;8.052;2023-07-20T11:17:13;26.90;96.70
11848;DHT22;5983;49.966;8.052;2023-07-20T11:19:47;27.00;96.70
11848;DHT22;5983;49.966;8.052;2023-07-20T11:22:16;27.10;96.30
11848;DHT22;5983;49.966;8.052;2023-07-20T11:24:44;27.20;96.00
11848;DHT22;5983;49.966;8.052;2023-07-20T11:27:10;27.20;96.00
11848;DHT22;5983;49.966;8.052;2023-07-20T11:29:37;27.20;95.80
11848;DHT22;5983;49.966;8.052;2023-07-20T11:32:04;27.20;95.70
11848;DHT22;5983;49.966;8.052;2023-07-20T11:34:31;27.30;95.30
11848;DHT22;5983;49.966;8.052;2023-07-20T11:37:00;27.40;95.00
11848;DHT22;5983;49.966;8.052;2023-07-20T11:39:29;27.40;94.30
11848;DHT22;5983;49.966;8.052;2023-07-20T11:41:56;27.40;94.30
11848;DHT22;5983;49.966;8.052;2023-07-20T11:44:24;27.20;94.90
11848;DHT22;5983;49.966;8.052;2023-07-20T11:46:59;27.10;94.90
11848;DHT22;5983;49.966;8.052;2023-07-20T11:49:27;27.00;94.20
11848;DHT22;5983;49.966;8.052;2023-07-20T11:51:54;26.90;94.10
11848;DHT22;5983;49.966;8.052;2023-07-20T11:54:24;26.90;94.30
11848;DHT22;5983;49.966;8.052;2023-07-20T11:56:53;27.10;94.50
11848;DHT22;5983;49.966;8.052;2023-07-20T11:59:20;27.30;93.40
11848;DHT22;5983;49.966;8.052;2023-07-20T12:01:47;27.50;93.40
11848;DHT22;5983;49.966;8.052;2023-07-20T12:04:14;27.60;92.60
11848;DHT22;5983;49.966;8.052;2023-07-20T12:06:41;27.70;92.20
11848;DHT22;5983;49.966;8.052;2023-07-20T12:09:12;27.60;92.00
11848;DHT22;5983;49.966;8.052;2023-07-20T12:11:42;27.50;91.70
11848;DHT22;5983;49.966;8.052;2023-07-20T12:14:09;27.40;92.00
11848;DHT22;5983;49.966;8.052;2023-07-20T12:16:37;27.30;91.90
11848;DHT22;5983;49.966;8.052;2023-07-20T12:19:05;27.40;91.50
11848;DHT22;5983;49.966;8.052;2023-07-20T12:21:33;27.60;91.20
11848;DHT22;5983;49.966;8.052;2023-07-20T12:24:02;27.60;90.90
11848;DHT22;5983;49.966;8.052;2023-07-20T12:26:29;27.50;90.60
11848;DHT22;5983;49.966;8.052;2023-07-20T12:28:58;27.40;90.60
11848;DHT22;5983;49.966;8.052;2023-07-20T12:31:25;27.20;90.10
11848;DHT22;5983;49.966;8.052;2023-07-20T12:33:53;26.90;89.30
11848;DHT22;5983;49.966;8.052;2023-07-20T12:36:20;26.80;87.70
11848;DHT22;5983;49.966;8.052;2023-07-20T12:38:47;26.60;88.80
11848;DHT22;5983;49.966;8.052;2023-07-20T12:41:14;26.60;86.80
11848;DHT22;5983;49.966;8.052;2023-07-20T12:43:41;26.50;85.10
11848;DHT22;5983;49.966;8.052;2023-07-20T12:46:09;26.50;84.20
11848;DHT22;5983;49.966;8.052;2023-07-20T12:48:37;26.50;84.80
11848;DHT22;5983;49.966;8.052;2023-07-20T12:51:05;26.70;83.50
11848;DHT22;5983;49.966;8.052;2023-07-20T12:53:32;26.90;83.20
11848;DHT22;5983;49.966;8.052;2023-07-20T12:55:59;27.10;82.20
11848;DHT22;5983;49.966;8.052;2023-07-20T12:58:26;27.20;80.70
11848;DHT22;5983;49.966;8.052;2023-07-20T13:00:53;27.10;78.90
11848;DHT22;5983;49.966;8.052;2023-07-20T13:03:22;27.10;79.40
11848;DHT22;5983;49.966;8.052;2023-07-20T13:05:48;27.30;80.70
11848;DHT22;5983;49.966;8.052;2023-07-20T13:08:15;27.50;81.50
11848;DHT22;5983;49.966;8.052;2023-07-20T13:10:43;27.60;80.30
11848;DHT22;5983;49.966;8.052;2023-07-20T13:13:10;27.50;75.30
11848;DHT22;5983;49.966;8.052;2023-07-20T13:15:40;27.30;76.80
11848;DHT22;5983;49.966;8.052;2023-07-20T13:18:08;27.30;76.00
11848;DHT22;5983;49.966;8.052;2023-07-20T13:20:36;27.20;75.20
11848;DHT22;5983;49.966;8.052;2023-07-20T13:23:03;27.10;77.20
11848;DHT22;5983;49.966;8.052;2023-07-20T13:25:30;26.90;75.90
11848;DHT22;5983;49.966;8.052;2023-07-20T13:27:57;27.00;78.30
11848;DHT22;5983;49.966;8.052;2023-07-20T13:30:24;27.10;76.90
11848;DHT22;5983;49.966;8.052;2023-07-20T13:32:50;27.20;76.90
11848;DHT22;5983;49.966;8.052;2023-07-20T13:35:17;27.40;76.80
11848;DHT22;5983;49.966;8.052;2023-07-20T13:37:46;27.50;76.70
11848;DHT22;5983;49.966;8.052;2023-07-20T13:40:14;27.50;76.90
11848;DHT22;5983;49.966;8.052;2023-07-20T13:42:43;27.30;72.70
11848;DHT22;5983;49.966;8.052;2023-07-20T13:45:10;27.20;73.30
11848;DHT22;5983;49.966;8.052;2023-07-20T13:47:37;27.20;75.10
11848;DHT22;5983;49.966;8.052;2023-07-20T13:50:04;27.20;78.30
11848;DHT22;5983;49.966;8.052;2023-07-20T13:52:31;27.00;79.90
11848;DHT22;5983;49.966;8.052;2023-07-20T13:54:59;27.00;82.20
11848;DHT22;5983;49.966;8.052;2023-07-20T13:57:26;26.90;84.30
11848;DHT22;5983;49.966;8.052;2023-07-20T13:59:53;26.80;83.60
11848;DHT22;5983;49.966;8.052;2023-07-20T14:02:19;26.70;83.70
11848;DHT22;5983;49.966;8.052;2023-07-20T14:04:46;26.60;83.90
11848;DHT22;5983;49.966;8.052;2023-07-20T14:07:13;26.50;83.10
11848;DHT22;5983;49.966;8.052;2023-07-20T14:09:40;26.30;82.40
11848;DHT22;5983;49.966;8.052;2023-07-20T14:12:08;26.20;81.80
11848;DHT22;5983;49.966;8.052;2023-07-20T14:14:37;26.00;81.50
11848;DHT22;5983;49.966;8.052;2023-07-20T14:17:04;25.80;81.50
11848;DHT22;5983;49.966;8.052;2023-07-20T14:19:31;25.70;81.80
11848;DHT22;5983;49.966;8.052;2023-07-20T14:21:58;25.50;81.80
11848;DHT22;5983;49.966;8.052;2023-07-20T14:24:25;25.50;81.70
11848;DHT22;5983;49.966;8.052;2023-07-20T14:26:52;25.50;82.20
11848;DHT22;5983;49.966;8.052;2023-07-20T14:29:21;25.50;81.90
11848;DHT22;5983;49.966;8.052;2023-07-20T14:31:48;25.50;81.50
11848;DHT22;5983;49.966;8.052;2023-07-20T14:34:16;25.60;81.10
11848;DHT22;5983;49.966;8.052;2023-07-20T14:36:43;25.70;81.00
11848;DHT22;5983;49.966;8.052;2023-07-20T14:39:10;25.80;81.00
11848;DHT22;5983;49.966;8.052;2023-07-20T14:41:37;25.80;81.20
11848;DHT22;5983;49.966;8.052;2023-07-20T14:44:03;25.80;80.50
11848;DHT22;5983;49.966;8.052;2023-07-20T14:46:31;25.90;80.40
11848;DHT22;5983;49.966;8.052;2023-07-20T14:48:58;25.90;80.30
11848;DHT22;5983;49.966;8.052;2023-07-20T14:51:25;26.00;79.50
11848;DHT22;5983;49.966;8.052;2023-07-20T14:53:57;26.10;79.90
11848;DHT22;5983;49.966;8.052;2023-07-20T14:56:23;26.10;78.20
11848;DHT22;5983;49.966;8.052;2023-07-20T14:58:50;26.10;79.20
11848;DHT22;5983;49.966;8.052;2023-07-20T15:01:17;26.10;79.80
11848;DHT22;5983;49.966;8.052;2023-07-20T15:03:45;26.10;79.70
11848;DHT22;5983;49.966;8.052;2023-07-20T15:06:12;26.10;79.10
11848;DHT22;5983;49.966;8.052;2023-07-20T15:08:39;26.00;79.20
11848;DHT22;5983;49.966;8.052;2023-07-20T15:11:06;26.00;79.60
11848;DHT22;5983;49.966;8.052;2023-07-20T15:13:32;25.90;78.80
11848;DHT22;5983;49.966;8.052;2023-07-20T15:15:59;25.80;78.50
11848;DHT22;5983;49.966;8.052;2023-07-20T15:18:26;25.80;78.90
11848;DHT22;5983;49.966;8.052;2023-07-20T15:20:54;25.80;79.40
11848;DHT22;5983;49.966;8.052;2023-07-20T15:23:20;25.80;79.50
11848;DHT22;5983;49.966;8.052;2023-07-20T15:25:47;25.80;79.80
11848;DHT22;5983;49.966;8.052;2023-07-20T15:28:14;25.60;79.70
11848;DHT22;5983;49.966;8.052;2023-07-20T15:30:41;25.60;79.80
11848;DHT22;5983;49.966;8.052;2023-07-20T15:33:07;25.50;79.40
11848;DHT22;5983;49.966;8.052;2023-07-20T15:35:34;25.50;79.70
11848;DHT22;5983;49.966;8.052;2023-07-20T15:38:02;25.50;80.20
11848;DHT22;5983;49.966;8.052;2023-07-20T15:40:29;25.50;80.40
11848;DHT22;5983;49.966;8.052;2023-07-20T15:42:56;25.50;79.30
11848;DHT22;5983;49.966;8.052;2023-07-20T15:45:22;25.40;79.30
11848;DHT22;5983;49.966;8.052;2023-07-20T15:47:49;25.40;79.10
11848;DHT22;5983;49.966;8.052;2023-07-20T15:50:16;25.40;79.00
11848;DHT22;5983;49.966;8.052;2023-07-20T15:52:42;25.40;79.10
11848;DHT22;5983;49.966;8.052;2023-07-20T15:55:11;25.50;79.50